sensor_id;sensor_type;location;lat;lon;timestamp;P1;durP1;ratioP1;P2;durP2;ratioP2
83769;SDS011;73763;48.936;9.300;2023-11-21T00:00:51;4.87;;;1.70;;
83769;SDS011;73763;48.936;9.300;2023-11-21T00:03:17;4.43;;;1.90;;
83769;SDS011;73763;48.936;9.300;2023-11-21T00:05:42;6.60;;;1.60;;
83769;SDS011;73763;48.936;9.300;2023-11-21T00:08:08;7.60;;;1.87;;
83769;SDS011;73763;48.936;9.300;2023-11-21T00:10:34;7.90;;;1.90;;
83769;SDS011;73763;48.936;9.300;2023-11-21T00:13:00;6.50;;;2.25;;
83769;SDS011;73763;48.936;9.300;2023-11-21T00:15:25;7.03;;;2.43;;
83769;SDS011;73763;48.936;9.300;2023-11-21T00:17:51;10.03;;;2.90;;
83769;SDS011;73763;48.936;9.300;2023-11-21T00:20:16;12.57;;;3.20;;
83769;SDS011;73763;48.936;9.300;2023-11-21T00:22:42;7.27;;;2.60;;
83769;SDS011;73763;48.936;9.300;2023-11-21T00:25:07;9.20;;;2.50;;
83769;SDS011;73763;48.936;9.300;2023-11-21T00:27:33;6.72;;;2.25;;
83769;SDS011;73763;48.936;9.300;2023-11-21T00:29:58;10.00;;;2.73;;
83769;SDS011;73763;48.936;9.300;2023-11-21T00:32:24;6.77;;;2.33;;
83769;SDS011;73763;48.936;9.300;2023-11-21T00:34:50;8.83;;;2.43;;
83769;SDS011;73763;48.936;9.300;2023-11-21T00:37:15;8.55;;;2.75;;
83769;SDS011;73763;48.936;9.300;2023-11-21T00:39:40;6.33;;;2.57;;
83769;SDS011;73763;48.936;9.300;2023-11-21T00:42:06;9.65;;;2.20;;
83769;SDS011;73763;48.936;9.300;2023-11-21T00:44:32;7.57;;;2.33;;
83769;SDS011;73763;48.936;9.300;2023-11-21T00:46:57;10.65;;;2.75;;
83769;SDS011;73763;48.936;9.300;2023-11-21T00:49:23;9.83;;;2.93;;
83769;SDS011;73763;48.936;9.300;2023-11-21T00:51:48;9.43;;;2.42;;
83769;SDS011;73763;48.936;9.300;2023-11-21T00:54:14;8.30;;;2.40;;
83769;SDS011;73763;48.936;9.300;2023-11-21T00:56:39;7.47;;;2.92;;
83769;SDS011;73763;48.936;9.300;2023-11-21T00:59:05;8.27;;;3.17;;
83769;SDS011;73763;48.936;9.300;2023-11-21T01:01:30;9.20;;;3.07;;
83769;SDS011;73763;48.936;9.300;2023-11-21T01:03:56;7.53;;;2.60;;
83769;SDS011;73763;48.936;9.300;2023-11-21T01:06:21;9.53;;;3.10;;
83769;SDS011;73763;48.936;9.300;2023-11-21T01:08:47;9.30;;;3.08;;
83769;SDS011;73763;48.936;9.300;2023-11-21T01:11:12;11.23;;;2.97;;
83769;SDS011;73763;48.936;9.300;2023-11-21T01:13:38;9.85;;;2.90;;
83769;SDS011;73763;48.936;9.300;2023-11-21T01:16:05;9.48;;;3.20;;
83769;SDS011;73763;48.936;9.300;2023-11-21T01:18:31;10.63;;;3.00;;
83769;SDS011;73763;48.936;9.300;2023-11-21T01:20:57;9.30;;;2.83;;
83769;SDS011;73763;48.936;9.300;2023-11-21T01:23:22;9.25;;;3.00;;
83769;SDS011;73763;48.936;9.300;2023-11-21T01:25:48;9.23;;;3.20;;
83769;SDS011;73763;48.936;9.300;2023-11-21T01:28:13;9.20;;;2.80;;
83769;SDS011;73763;48.936;9.300;2023-11-21T01:30:39;9.87;;;2.87;;
83769;SDS011;73763;48.936;9.300;2023-11-21T01:33:04;10.38;;;3.22;;
83769;SDS011;73763;48.936;9.300;2023-11-21T01:35:30;6.10;;;2.83;;
83769;SDS011;73763;48.936;9.300;2023-11-21T01:37:56;8.15;;;2.97;;
83769;SDS011;73763;48.936;9.300;2023-11-21T01:40:21;8.43;;;3.10;;
83769;SDS011;73763;48.936;9.300;2023-11-21T01:42:47;11.63;;;3.25;;
83769;SDS011;73763;48.936;9.300;2023-11-21T01:45:12;13.13;;;4.00;;
83769;SDS011;73763;48.936;9.300;2023-11-21T01:47:38;10.90;;;3.97;;
83769;SDS011;73763;48.936;9.300;2023-11-21T01:50:06;12.77;;;3.95;;
83769;SDS011;73763;48.936;9.300;2023-11-21T01:52:37;10.13;;;2.97;;
83769;SDS011;73763;48.936;9.300;2023-11-21T01:55:04;10.43;;;3.13;;
83769;SDS011;73763;48.936;9.300;2023-11-21T01:57:32;10.70;;;3.00;;
83769;SDS011;73763;48.936;9.300;2023-11-21T01:59:57;8.87;;;3.07;;
83769;SDS011;73763;48.936;9.300;2023-11-21T02:02:26;10.15;;;3.28;;
83769;SDS011;73763;48.936;9.300;2023-11-21T02:04:52;11.57;;;3.30;;
83769;SDS011;73763;48.936;9.300;2023-11-21T02:07:17;7.85;;;2.47;;
83769;SDS011;73763;48.936;9.300;2023-11-21T02:09:43;8.13;;;2.73;;
83769;SDS011;73763;48.936;9.300;2023-11-21T02:12:09;8.40;;;2.60;;
83769;SDS011;73763;48.936;9.300;2023-11-21T02:14:34;7.17;;;2.50;;
83769;SDS011;73763;48.936;9.300;2023-11-21T02:17:00;8.85;;;2.50;;
83769;SDS011;73763;48.936;9.300;2023-11-21T02:19:25;9.93;;;2.33;;
83769;SDS011;73763;48.936;9.300;2023-11-21T02:21:52;8.77;;;2.35;;
83769;SDS011;73763;48.936;9.300;2023-11-21T02:24:21;6.30;;;2.13;;
83769;SDS011;73763;48.936;9.300;2023-11-21T02:26:50;8.18;;;2.50;;
83769;SDS011;73763;48.936;9.300;2023-11-21T02:29:19;7.55;;;2.60;;
83769;SDS011;73763;48.936;9.300;2023-11-21T02:31:46;9.82;;;2.60;;
83769;SDS011;73763;48.936;9.300;2023-11-21T02:34:11;6.75;;;2.20;;
83769;SDS011;73763;48.936;9.300;2023-11-21T02:36:37;5.55;;;1.95;;
83769;SDS011;73763;48.936;9.300;2023-11-21T02:39:02;9.83;;;2.27;;
83769;SDS011;73763;48.936;9.300;2023-11-21T02:41:28;7.63;;;2.20;;
83769;SDS011;73763;48.936;9.300;2023-11-21T02:43:54;8.83;;;2.37;;
83769;SDS011;73763;48.936;9.300;2023-11-21T02:46:20;4.90;;;2.10;;
83769;SDS011;73763;48.936;9.300;2023-11-21T02:48:45;6.20;;;2.10;;
83769;SDS011;73763;48.936;9.300;2023-11-21T02:51:10;5.68;;;2.22;;
83769;SDS011;73763;48.936;9.300;2023-11-21T02:53:36;8.10;;;2.57;;
83769;SDS011;73763;48.936;9.300;2023-11-21T02:56:01;7.88;;;2.50;;
83769;SDS011;73763;48.936;9.300;2023-11-21T02:58:27;6.23;;;2.23;;
83769;SDS011;73763;48.936;9.300;2023-11-21T03:00:53;8.10;;;2.23;;
83769;SDS011;73763;48.936;9.300;2023-11-21T03:03:18;4.57;;;1.92;;
83769;SDS011;73763;48.936;9.300;2023-11-21T03:05:43;4.63;;;1.80;;
83769;SDS011;73763;48.936;9.300;2023-11-21T03:08:09;5.50;;;2.17;;
83769;SDS011;73763;48.936;9.300;2023-11-21T03:10:34;9.23;;;3.77;;
83769;SDS011;73763;48.936;9.300;2023-11-21T03:13:00;9.47;;;2.53;;
83769;SDS011;73763;48.936;9.300;2023-11-21T03:15:25;7.30;;;2.20;;
83769;SDS011;73763;48.936;9.300;2023-11-21T03:17:51;6.77;;;1.80;;
83769;SDS011;73763;48.936;9.300;2023-11-21T03:20:16;5.22;;;1.73;;
83769;SDS011;73763;48.936;9.300;2023-11-21T03:22:42;6.80;;;2.00;;
83769;SDS011;73763;48.936;9.300;2023-11-21T03:25:08;7.60;;;1.80;;
83769;SDS011;73763;48.936;9.300;2023-11-21T03:27:33;8.45;;;2.10;;
83769;SDS011;73763;48.936;9.300;2023-11-21T03:29:59;6.93;;;1.83;;
83769;SDS011;73763;48.936;9.300;2023-11-21T03:32:25;7.95;;;2.00;;
83769;SDS011;73763;48.936;9.300;2023-11-21T03:34:54;7.50;;;1.93;;
83769;SDS011;73763;48.936;9.300;2023-11-21T03:37:20;5.55;;;1.88;;
83769;SDS011;73763;48.936;9.300;2023-11-21T03:39:46;7.15;;;2.30;;
83769;SDS011;73763;48.936;9.300;2023-11-21T03:42:12;7.47;;;2.57;;
83769;SDS011;73763;48.936;9.300;2023-11-21T03:44:37;6.60;;;2.00;;
83769;SDS011;73763;48.936;9.300;2023-11-21T03:47:03;6.80;;;2.10;;
83769;SDS011;73763;48.936;9.300;2023-11-21T03:49:28;6.90;;;2.28;;
83769;SDS011;73763;48.936;9.300;2023-11-21T03:51:54;7.10;;;2.20;;
83769;SDS011;73763;48.936;9.300;2023-11-21T03:54:20;6.87;;;2.17;;
83769;SDS011;73763;48.936;9.300;2023-11-21T03:56:46;8.20;;;2.53;;
83769;SDS011;73763;48.936;9.300;2023-11-21T03:59:11;6.70;;;2.70;;
83769;SDS011;73763;48.936;9.300;2023-11-21T04:01:37;7.72;;;2.90;;
83769;SDS011;73763;48.936;9.300;2023-11-21T04:04:02;6.27;;;2.60;;
83769;SDS011;73763;48.936;9.300;2023-11-21T04:06:28;7.15;;;2.97;;
83769;SDS011;73763;48.936;9.300;2023-11-21T04:08:53;6.27;;;2.70;;
83769;SDS011;73763;48.936;9.300;2023-11-21T04:11:19;5.30;;;2.83;;
83769;SDS011;73763;48.936;9.300;2023-11-21T04:13:44;7.13;;;2.70;;
83769;SDS011;73763;48.936;9.300;2023-11-21T04:16:10;5.93;;;2.60;;
83769;SDS011;73763;48.936;9.300;2023-11-21T04:18:36;8.37;;;2.50;;
83769;SDS011;73763;48.936;9.300;2023-11-21T04:21:02;7.07;;;2.50;;
83769;SDS011;73763;48.936;9.300;2023-11-21T04:23:28;4.82;;;2.70;;
83769;SDS011;73763;48.936;9.300;2023-11-21T04:25:54;6.05;;;2.88;;
83769;SDS011;73763;48.936;9.300;2023-11-21T04:28:19;6.40;;;2.47;;
83769;SDS011;73763;48.936;9.300;2023-11-21T04:30:45;6.77;;;2.50;;
83769;SDS011;73763;48.936;9.300;2023-11-21T04:33:10;8.20;;;3.35;;
83769;SDS011;73763;48.936;9.300;2023-11-21T04:35:36;8.40;;;2.60;;
83769;SDS011;73763;48.936;9.300;2023-11-21T04:38:01;11.70;;;2.77;;
83769;SDS011;73763;48.936;9.300;2023-11-21T04:40:27;6.20;;;2.40;;
83769;SDS011;73763;48.936;9.300;2023-11-21T04:42:52;4.77;;;1.97;;
83769;SDS011;73763;48.936;9.300;2023-11-21T04:45:18;4.28;;;1.77;;
83769;SDS011;73763;48.936;9.300;2023-11-21T04:47:43;5.10;;;1.80;;
83769;SDS011;73763;48.936;9.300;2023-11-21T04:50:09;5.07;;;2.40;;
83769;SDS011;73763;48.936;9.300;2023-11-21T04:52:35;4.87;;;2.57;;
83769;SDS011;73763;48.936;9.300;2023-11-21T04:55:00;5.13;;;2.28;;
83769;SDS011;73763;48.936;9.300;2023-11-21T04:57:26;4.13;;;2.13;;
83769;SDS011;73763;48.936;9.300;2023-11-21T04:59:51;5.57;;;2.03;;
83769;SDS011;73763;48.936;9.300;2023-11-21T05:02:17;4.20;;;2.10;;
83769;SDS011;73763;48.936;9.300;2023-11-21T05:04:42;4.10;;;1.80;;
83769;SDS011;73763;48.936;9.300;2023-11-21T05:07:08;5.00;;;2.00;;
83769;SDS011;73763;48.936;9.300;2023-11-21T05:09:33;3.73;;;2.10;;
83769;SDS011;73763;48.936;9.300;2023-11-21T05:11:59;4.07;;;1.88;;
83769;SDS011;73763;48.936;9.300;2023-11-21T05:14:24;4.47;;;1.93;;
83769;SDS011;73763;48.936;9.300;2023-11-21T05:16:50;4.45;;;1.70;;
83769;SDS011;73763;48.936;9.300;2023-11-21T05:19:16;3.37;;;2.00;;
83769;SDS011;73763;48.936;9.300;2023-11-21T05:21:41;4.05;;;1.73;;
83769;SDS011;73763;48.936;9.300;2023-11-21T05:24:07;5.30;;;1.80;;
83769;SDS011;73763;48.936;9.300;2023-11-21T05:26:32;5.10;;;2.08;;
83769;SDS011;73763;48.936;9.300;2023-11-21T05:28:58;5.77;;;1.57;;
83769;SDS011;73763;48.936;9.300;2023-11-21T05:31:23;4.40;;;1.60;;
83769;SDS011;73763;48.936;9.300;2023-11-21T05:33:49;4.40;;;1.60;;
83769;SDS011;73763;48.936;9.300;2023-11-21T05:36:14;3.40;;;1.60;;
83769;SDS011;73763;48.936;9.300;2023-11-21T05:38:40;6.07;;;1.67;;
83769;SDS011;73763;48.936;9.300;2023-11-21T05:41:05;6.07;;;1.90;;
83769;SDS011;73763;48.936;9.300;2023-11-21T05:43:31;4.82;;;1.60;;
83769;SDS011;73763;48.936;9.300;2023-11-21T05:45:56;3.20;;;1.30;;
83769;SDS011;73763;48.936;9.300;2023-11-21T05:48:22;3.88;;;1.48;;
83769;SDS011;73763;48.936;9.300;2023-11-21T05:50:47;5.83;;;1.80;;
83769;SDS011;73763;48.936;9.300;2023-11-21T05:53:13;5.87;;;1.80;;
83769;SDS011;73763;48.936;9.300;2023-11-21T05:55:38;4.97;;;2.10;;
83769;SDS011;73763;48.936;9.300;2023-11-21T05:58:04;9.17;;;3.80;;
83769;SDS011;73763;48.936;9.300;2023-11-21T06:00:29;4.65;;;2.35;;
83769;SDS011;73763;48.936;9.300;2023-11-21T06:02:55;4.97;;;2.47;;
83769;SDS011;73763;48.936;9.300;2023-11-21T06:05:24;5.18;;;3.03;;
83769;SDS011;73763;48.936;9.300;2023-11-21T06:07:51;6.00;;;2.00;;
83769;SDS011;73763;48.936;9.300;2023-11-21T06:10:17;7.32;;;2.35;;
83769;SDS011;73763;48.936;9.300;2023-11-21T06:12:42;3.30;;;1.83;;
83769;SDS011;73763;48.936;9.300;2023-11-21T06:15:08;4.70;;;1.83;;
83769;SDS011;73763;48.936;9.300;2023-11-21T06:17:36;4.63;;;2.00;;
83769;SDS011;73763;48.936;9.300;2023-11-21T06:20:11;4.93;;;2.15;;
83769;SDS011;73763;48.936;9.300;2023-11-21T06:22:37;4.65;;;2.13;;
83769;SDS011;73763;48.936;9.300;2023-11-21T06:25:03;3.30;;;2.00;;
83769;SDS011;73763;48.936;9.300;2023-11-21T06:27:31;4.57;;;1.90;;
83769;SDS011;73763;48.936;9.300;2023-11-21T06:29:57;4.63;;;1.90;;
83769;SDS011;73763;48.936;9.300;2023-11-21T06:32:22;4.80;;;2.10;;
83769;SDS011;73763;48.936;9.300;2023-11-21T06:34:48;4.50;;;1.70;;
83769;SDS011;73763;48.936;9.300;2023-11-21T06:37:13;7.00;;;2.80;;
83769;SDS011;73763;48.936;9.300;2023-11-21T06:39:39;4.77;;;2.17;;
83769;SDS011;73763;48.936;9.300;2023-11-21T06:42:04;6.50;;;2.40;;
83769;SDS011;73763;48.936;9.300;2023-11-21T06:44:30;5.83;;;2.10;;
83769;SDS011;73763;48.936;9.300;2023-11-21T06:46:56;4.45;;;2.03;;
83769;SDS011;73763;48.936;9.300;2023-11-21T06:49:21;5.50;;;2.37;;
83769;SDS011;73763;48.936;9.300;2023-11-21T06:51:47;4.88;;;1.60;;
83769;SDS011;73763;48.936;9.300;2023-11-21T06:54:12;6.33;;;1.83;;
83769;SDS011;73763;48.936;9.300;2023-11-21T06:56:38;2.72;;;1.83;;
83769;SDS011;73763;48.936;9.300;2023-11-21T06:59:03;5.70;;;2.50;;
83769;SDS011;73763;48.936;9.300;2023-11-21T07:01:29;5.43;;;2.37;;
83769;SDS011;73763;48.936;9.300;2023-11-21T07:03:54;8.32;;;4.22;;
83769;SDS011;73763;48.936;9.300;2023-11-21T07:06:20;6.27;;;2.80;;
83769;SDS011;73763;48.936;9.300;2023-11-21T07:08:45;4.70;;;2.40;;
83769;SDS011;73763;48.936;9.300;2023-11-21T07:11:11;5.67;;;2.40;;
83769;SDS011;73763;48.936;9.300;2023-11-21T07:13:36;3.67;;;2.00;;
83769;SDS011;73763;48.936;9.300;2023-11-21T07:16:02;3.45;;;1.90;;
83769;SDS011;73763;48.936;9.300;2023-11-21T07:18:27;4.57;;;2.10;;
83769;SDS011;73763;48.936;9.300;2023-11-21T07:20:53;3.75;;;2.10;;
83769;SDS011;73763;48.936;9.300;2023-11-21T07:23:18;4.73;;;2.00;;
83769;SDS011;73763;48.936;9.300;2023-11-21T07:25:44;4.75;;;1.70;;
83769;SDS011;73763;48.936;9.300;2023-11-21T07:28:10;3.70;;;1.90;;
83769;SDS011;73763;48.936;9.300;2023-11-21T07:30:35;5.70;;;1.80;;
83769;SDS011;73763;48.936;9.300;2023-11-21T07:33:01;3.37;;;1.80;;
83769;SDS011;73763;48.936;9.300;2023-11-21T07:35:26;6.10;;;2.00;;
83769;SDS011;73763;48.936;9.300;2023-11-21T07:37:52;5.18;;;2.00;;
83769;SDS011;73763;48.936;9.300;2023-11-21T07:40:17;5.00;;;2.03;;
83769;SDS011;73763;48.936;9.300;2023-11-21T07:42:43;4.47;;;2.30;;
83769;SDS011;73763;48.936;9.300;2023-11-21T07:45:08;7.20;;;2.47;;
83769;SDS011;73763;48.936;9.300;2023-11-21T07:47:34;4.53;;;2.08;;
83769;SDS011;73763;48.936;9.300;2023-11-21T07:50:00;4.37;;;2.67;;
83769;SDS011;73763;48.936;9.300;2023-11-21T07:52:27;3.63;;;2.28;;
83769;SDS011;73763;48.936;9.300;2023-11-21T07:54:53;4.60;;;2.20;;
83769;SDS011;73763;48.936;9.300;2023-11-21T07:57:18;5.03;;;2.45;;
83769;SDS011;73763;48.936;9.300;2023-11-21T07:59:44;3.77;;;2.10;;
83769;SDS011;73763;48.936;9.300;2023-11-21T08:02:09;2.93;;;2.03;;
83769;SDS011;73763;48.936;9.300;2023-11-21T08:04:35;3.53;;;1.90;;
83769;SDS011;73763;48.936;9.300;2023-11-21T08:07:00;3.40;;;2.03;;
83769;SDS011;73763;48.936;9.300;2023-11-21T08:09:26;3.08;;;1.90;;
83769;SDS011;73763;48.936;9.300;2023-11-21T08:11:53;7.38;;;3.70;;
83769;SDS011;73763;48.936;9.300;2023-11-21T08:14:19;4.97;;;2.10;;
83769;SDS011;73763;48.936;9.300;2023-11-21T08:16:44;4.70;;;1.97;;
83769;SDS011;73763;48.936;9.300;2023-11-21T08:19:10;5.10;;;2.13;;
83769;SDS011;73763;48.936;9.300;2023-11-21T08:21:35;5.43;;;1.93;;
83769;SDS011;73763;48.936;9.300;2023-11-21T08:24:01;3.75;;;2.03;;
83769;SDS011;73763;48.936;9.300;2023-11-21T08:26:27;3.70;;;1.80;;
83769;SDS011;73763;48.936;9.300;2023-11-21T08:28:52;4.57;;;2.00;;
83769;SDS011;73763;48.936;9.300;2023-11-21T08:31:23;4.50;;;1.95;;
83769;SDS011;73763;48.936;9.300;2023-11-21T08:33:49;4.68;;;2.08;;
83769;SDS011;73763;48.936;9.300;2023-11-21T08:36:15;4.07;;;2.20;;
83769;SDS011;73763;48.936;9.300;2023-11-21T08:38:40;3.17;;;2.10;;
83769;SDS011;73763;48.936;9.300;2023-11-21T08:41:06;3.80;;;2.20;;
83769;SDS011;73763;48.936;9.300;2023-11-21T08:43:34;3.90;;;2.40;;
83769;SDS011;73763;48.936;9.300;2023-11-21T08:46:00;2.73;;;1.93;;
83769;SDS011;73763;48.936;9.300;2023-11-21T08:48:25;3.20;;;2.22;;
83769;SDS011;73763;48.936;9.300;2023-11-21T08:50:51;4.73;;;1.90;;
83769;SDS011;73763;48.936;9.300;2023-11-21T08:53:16;4.15;;;2.45;;
83769;SDS011;73763;48.936;9.300;2023-11-21T08:55:42;4.20;;;2.50;;
83769;SDS011;73763;48.936;9.300;2023-11-21T08:58:08;4.13;;;2.38;;
83769;SDS011;73763;48.936;9.300;2023-11-21T09:00:33;3.70;;;2.43;;
83769;SDS011;73763;48.936;9.300;2023-11-21T09:03:00;4.63;;;2.57;;
83769;SDS011;73763;48.936;9.300;2023-11-21T09:05:26;4.25;;;2.60;;
83769;SDS011;73763;48.936;9.300;2023-11-21T09:07:52;3.73;;;2.60;;
83769;SDS011;73763;48.936;9.300;2023-11-21T09:10:17;4.13;;;2.00;;
83769;SDS011;73763;48.936;9.300;2023-11-21T09:12:43;1.85;;;1.50;;
83769;SDS011;73763;48.936;9.300;2023-11-21T09:15:08;2.90;;;1.30;;
83769;SDS011;73763;48.936;9.300;2023-11-21T09:17:34;1.90;;;1.20;;
83769;SDS011;73763;48.936;9.300;2023-11-21T09:20:00;3.63;;;1.70;;
83769;SDS011;73763;48.936;9.300;2023-11-21T09:22:26;2.63;;;1.67;;
83769;SDS011;73763;48.936;9.300;2023-11-21T09:24:51;3.27;;;1.70;;
83769;SDS011;73763;48.936;9.300;2023-11-21T09:27:17;2.55;;;1.45;;
83769;SDS011;73763;48.936;9.300;2023-11-21T09:29:43;2.20;;;1.30;;
83769;SDS011;73763;48.936;9.300;2023-11-21T09:32:09;2.43;;;1.40;;
83769;SDS011;73763;48.936;9.300;2023-11-21T09:34:34;1.85;;;1.20;;
83769;SDS011;73763;48.936;9.300;2023-11-21T09:37:00;2.10;;;1.30;;
83769;SDS011;73763;48.936;9.300;2023-11-21T09:39:25;2.65;;;1.35;;
83769;SDS011;73763;48.936;9.300;2023-11-21T09:41:58;1.60;;;1.50;;
83769;SDS011;73763;48.936;9.300;2023-11-21T09:44:42;1.90;;;1.70;;
83769;SDS011;73763;48.936;9.300;2023-11-21T09:47:09;3.20;;;1.55;;
83769;SDS011;73763;48.936;9.300;2023-11-21T09:49:39;2.50;;;1.80;;
83769;SDS011;73763;48.936;9.300;2023-11-21T09:52:04;3.13;;;1.45;;
83769;SDS011;73763;48.936;9.300;2023-11-21T09:54:33;1.77;;;1.30;;
83769;SDS011;73763;48.936;9.300;2023-11-21T09:57:00;1.65;;;1.50;;
83769;SDS011;73763;48.936;9.300;2023-11-21T09:59:29;1.77;;;1.40;;
83769;SDS011;73763;48.936;9.300;2023-11-21T10:01:56;3.05;;;1.42;;
83769;SDS011;73763;48.936;9.300;2023-11-21T10:04:22;1.40;;;1.30;;
83769;SDS011;73763;48.936;9.300;2023-11-21T10:06:48;2.93;;;1.40;;
83769;SDS011;73763;48.936;9.300;2023-11-21T10:09:15;1.65;;;1.55;;
83769;SDS011;73763;48.936;9.300;2023-11-21T10:11:41;2.63;;;1.40;;
83769;SDS011;73763;48.936;9.300;2023-11-21T10:14:08;1.67;;;1.40;;
83769;SDS011;73763;48.936;9.300;2023-11-21T10:16:37;2.05;;;1.38;;
83769;SDS011;73763;48.936;9.300;2023-11-21T10:19:03;2.03;;;1.60;;
83769;SDS011;73763;48.936;9.300;2023-11-21T10:21:29;2.25;;;1.50;;
83769;SDS011;73763;48.936;9.300;2023-11-21T10:23:55;2.60;;;1.98;;
83769;SDS011;73763;48.936;9.300;2023-11-21T10:26:20;1.60;;;1.50;;
83769;SDS011;73763;48.936;9.300;2023-11-21T10:28:57;2.40;;;1.65;;
83769;SDS011;73763;48.936;9.300;2023-11-21T10:31:27;3.10;;;1.80;;
83769;SDS011;73763;48.936;9.300;2023-11-21T10:33:53;2.63;;;1.70;;
83769;SDS011;73763;48.936;9.300;2023-11-21T10:36:25;1.70;;;1.60;;
83769;SDS011;73763;48.936;9.300;2023-11-21T10:38:51;2.05;;;1.67;;
83769;SDS011;73763;48.936;9.300;2023-11-21T10:41:17;2.37;;;1.80;;
83769;SDS011;73763;48.936;9.300;2023-11-21T10:43:43;2.88;;;1.80;;
83769;SDS011;73763;48.936;9.300;2023-11-21T10:46:09;1.93;;;1.30;;
83769;SDS011;73763;48.936;9.300;2023-11-21T10:48:34;1.53;;;1.40;;
83769;SDS011;73763;48.936;9.300;2023-11-21T10:51:01;3.20;;;1.40;;
83769;SDS011;73763;48.936;9.300;2023-11-21T10:53:32;1.30;;;1.20;;
83769;SDS011;73763;48.936;9.300;2023-11-21T10:56:01;1.90;;;1.30;;
83769;SDS011;73763;48.936;9.300;2023-11-21T10:58:30;1.35;;;1.25;;
83769;SDS011;73763;48.936;9.300;2023-11-21T11:00:56;2.13;;;1.30;;
83769;SDS011;73763;48.936;9.300;2023-11-21T11:03:22;1.50;;;1.30;;
83769;SDS011;73763;48.936;9.300;2023-11-21T11:05:47;2.20;;;1.30;;
83769;SDS011;73763;48.936;9.300;2023-11-21T11:08:14;1.42;;;1.33;;
83769;SDS011;73763;48.936;9.300;2023-11-21T11:10:40;1.55;;;1.45;;
83769;SDS011;73763;48.936;9.300;2023-11-21T11:13:06;1.70;;;1.50;;
83769;SDS011;73763;48.936;9.300;2023-11-21T11:15:32;1.63;;;1.50;;
83769;SDS011;73763;48.936;9.300;2023-11-21T11:17:57;2.10;;;1.70;;
83769;SDS011;73763;48.936;9.300;2023-11-21T11:20:25;2.30;;;2.10;;
83769;SDS011;73763;48.936;9.300;2023-11-21T11:28:15;2.97;;;2.70;;
83769;SDS011;73763;48.936;9.300;2023-11-21T11:31:02;3.30;;;2.60;;
83769;SDS011;73763;48.936;9.300;2023-11-21T11:33:42;3.00;;;2.70;;
83769;SDS011;73763;48.936;9.300;2023-11-21T11:36:19;3.80;;;2.93;;
83769;SDS011;73763;48.936;9.300;2023-11-21T11:38:51;3.63;;;3.33;;
83769;SDS011;73763;48.936;9.300;2023-11-21T11:41:27;3.70;;;3.07;;
83769;SDS011;73763;48.936;9.300;2023-11-21T11:43:55;4.03;;;3.60;;
83769;SDS011;73763;48.936;9.300;2023-11-21T11:46:21;4.43;;;4.03;;
83769;SDS011;73763;48.936;9.300;2023-11-21T11:49:05;5.05;;;4.50;;
83769;SDS011;73763;48.936;9.300;2023-11-21T11:51:31;4.10;;;3.70;;
83769;SDS011;73763;48.936;9.300;2023-11-21T11:53:56;3.77;;;3.47;;
83769;SDS011;73763;48.936;9.300;2023-11-21T11:56:23;4.33;;;3.70;;
83769;SDS011;73763;48.936;9.300;2023-11-21T11:58:49;3.92;;;3.53;;
83769;SDS011;73763;48.936;9.300;2023-11-21T12:01:20;3.85;;;3.50;;
83769;SDS011;73763;48.936;9.300;2023-11-21T12:06:37;3.55;;;3.25;;
83769;SDS011;73763;48.936;9.300;2023-11-21T12:09:03;3.13;;;2.80;;
83769;SDS011;73763;48.936;9.300;2023-11-21T12:11:30;3.45;;;3.15;;
83769;SDS011;73763;48.936;9.300;2023-11-21T12:13:56;3.50;;;3.20;;
83769;SDS011;73763;48.936;9.300;2023-11-21T12:16:22;3.88;;;3.30;;
83769;SDS011;73763;48.936;9.300;2023-11-21T12:18:47;6.43;;;4.47;;
83769;SDS011;73763;48.936;9.300;2023-11-21T12:21:13;4.47;;;3.85;;
83769;SDS011;73763;48.936;9.300;2023-11-21T12:23:39;4.85;;;3.70;;
83769;SDS011;73763;48.936;9.300;2023-11-21T12:26:05;4.03;;;3.10;;
83769;SDS011;73763;48.936;9.300;2023-11-21T12:28:30;3.00;;;2.67;;
83769;SDS011;73763;48.936;9.300;2023-11-21T12:30:56;4.10;;;3.10;;
83769;SDS011;73763;48.936;9.300;2023-11-21T12:33:21;3.57;;;2.90;;
83769;SDS011;73763;48.936;9.300;2023-11-21T12:35:47;5.45;;;4.07;;
83769;SDS011;73763;48.936;9.300;2023-11-21T12:38:12;3.77;;;3.00;;
83769;SDS011;73763;48.936;9.300;2023-11-21T12:40:38;3.30;;;2.97;;
83769;SDS011;73763;48.936;9.300;2023-11-21T12:43:03;3.33;;;2.50;;
83769;SDS011;73763;48.936;9.300;2023-11-21T12:45:29;3.83;;;2.90;;
83769;SDS011;73763;48.936;9.300;2023-11-21T12:48:01;5.10;;;3.53;;
83769;SDS011;73763;48.936;9.300;2023-11-21T12:50:30;3.55;;;3.25;;
83769;SDS011;73763;48.936;9.300;2023-11-21T12:53:00;5.25;;;4.63;;
83769;SDS011;73763;48.936;9.300;2023-11-21T12:55:29;5.30;;;4.80;;
83769;SDS011;73763;48.936;9.300;2023-11-21T12:57:56;6.05;;;4.80;;
83769;SDS011;73763;48.936;9.300;2023-11-21T13:00:28;4.10;;;3.70;;
83769;SDS011;73763;48.936;9.300;2023-11-21T13:03:15;3.97;;;3.20;;
83769;SDS011;73763;48.936;9.300;2023-11-21T13:05:41;4.38;;;3.63;;
83769;SDS011;73763;48.936;9.300;2023-11-21T13:08:08;3.35;;;2.20;;
83769;SDS011;73763;48.936;9.300;2023-11-21T13:10:35;2.92;;;2.10;;
83769;SDS011;73763;48.936;9.300;2023-11-21T13:13:01;2.10;;;1.90;;
83769;SDS011;73763;48.936;9.300;2023-11-21T13:15:29;2.20;;;2.00;;
83769;SDS011;73763;48.936;9.300;2023-11-21T13:17:54;2.55;;;1.83;;
83769;SDS011;73763;48.936;9.300;2023-11-21T13:20:20;2.77;;;2.03;;
83769;SDS011;73763;48.936;9.300;2023-11-21T13:25:15;1.70;;;1.42;;
83769;SDS011;73763;48.936;9.300;2023-11-21T13:27:41;2.45;;;1.30;;
83769;SDS011;73763;48.936;9.300;2023-11-21T13:30:07;2.13;;;1.40;;
83769;SDS011;73763;48.936;9.300;2023-11-21T13:32:33;3.53;;;1.10;;
83769;SDS011;73763;48.936;9.300;2023-11-21T13:34:58;1.90;;;1.20;;
83769;SDS011;73763;48.936;9.300;2023-11-21T13:37:23;1.30;;;0.90;;
83769;SDS011;73763;48.936;9.300;2023-11-21T13:39:49;1.70;;;1.00;;
83769;SDS011;73763;48.936;9.300;2023-11-21T13:42:15;3.10;;;1.20;;
83769;SDS011;73763;48.936;9.300;2023-11-21T13:44:40;1.50;;;0.60;;
83769;SDS011;73763;48.936;9.300;2023-11-21T13:47:06;0.70;;;0.60;;
83769;SDS011;73763;48.936;9.300;2023-11-21T13:49:31;3.00;;;0.80;;
83769;SDS011;73763;48.936;9.300;2023-11-21T13:51:57;0.82;;;0.55;;
83769;SDS011;73763;48.936;9.300;2023-11-21T13:54:22;0.50;;;0.30;;
83769;SDS011;73763;48.936;9.300;2023-11-21T13:56:48;2.17;;;0.73;;
83769;SDS011;73763;48.936;9.300;2023-11-21T13:59:16;2.70;;;0.65;;
83769;SDS011;73763;48.936;9.300;2023-11-21T14:01:43;1.67;;;0.70;;
83769;SDS011;73763;48.936;9.300;2023-11-21T14:04:09;3.67;;;0.80;;
83769;SDS011;73763;48.936;9.300;2023-11-21T14:06:35;2.40;;;0.63;;
83769;SDS011;73763;48.936;9.300;2023-11-21T14:09:01;3.83;;;0.80;;
83769;SDS011;73763;48.936;9.300;2023-11-21T14:11:26;16.40;;;2.42;;
83769;SDS011;73763;48.936;9.300;2023-11-21T14:13:52;3.07;;;0.90;;
83769;SDS011;73763;48.936;9.300;2023-11-21T14:16:17;2.33;;;0.80;;
83769;SDS011;73763;48.936;9.300;2023-11-21T14:18:43;3.47;;;1.20;;
83769;SDS011;73763;48.936;9.300;2023-11-21T14:21:09;15.73;;;2.22;;
83769;SDS011;73763;48.936;9.300;2023-11-21T14:23:34;4.27;;;1.00;;
83769;SDS011;73763;48.936;9.300;2023-11-21T14:26:00;11.65;;;2.15;;
83769;SDS011;73763;48.936;9.300;2023-11-21T14:28:25;4.93;;;1.20;;
83769;SDS011;73763;48.936;9.300;2023-11-21T14:30:51;5.07;;;1.10;;
83769;SDS011;73763;48.936;9.300;2023-11-21T14:33:17;2.20;;;1.08;;
83769;SDS011;73763;48.936;9.300;2023-11-21T14:35:42;1.27;;;1.00;;
83769;SDS011;73763;48.936;9.300;2023-11-21T14:38:08;2.05;;;1.00;;
83769;SDS011;73763;48.936;9.300;2023-11-21T14:40:34;1.60;;;0.95;;
83769;SDS011;73763;48.936;9.300;2023-11-21T14:43:00;2.13;;;0.90;;
83769;SDS011;73763;48.936;9.300;2023-11-21T14:45:26;1.15;;;0.88;;
83769;SDS011;73763;48.936;9.300;2023-11-21T14:47:52;1.23;;;1.00;;
83769;SDS011;73763;48.936;9.300;2023-11-21T14:50:17;1.90;;;1.10;;
83769;SDS011;73763;48.936;9.300;2023-11-21T14:52:43;1.60;;;1.13;;